createdAt,value
2022-09-06T00:03:38.759Z,3.30
2022-09-06T00:08:24.058Z,3.50
2022-09-06T00:13:09.693Z,2.58
2022-09-06T00:17:53.155Z,2.42
2022-09-06T00:22:37.252Z,2.00
2022-09-06T00:27:22.562Z,2.38
2022-09-06T00:32:06.060Z,2.75
2022-09-06T00:36:49.552Z,2.95
2022-09-06T00:41:33.116Z,2.70
2022-09-06T00:46:21.402Z,2.88
2022-09-06T00:51:09.964Z,2.45
2022-09-06T00:55:56.128Z,2.60
2022-09-06T01:00:39.695Z,2.58
2022-09-06T01:05:28.624Z,2.67
2022-09-06T01:10:41.705Z,2.80
2022-09-06T01:15:35.050Z,2.28
2022-09-06T01:21:04.174Z,2.70
2022-09-06T01:26:01.140Z,2.95
2022-09-06T01:30:52.469Z,2.70
2022-09-06T01:35:40.071Z,2.63
2022-09-06T01:40:23.512Z,3.05
2022-09-06T01:45:11.254Z,3.28
2022-09-06T01:50:12.415Z,2.35
2022-09-06T01:55:07.366Z,2.20
2022-09-06T02:00:08.681Z,2.70
2022-09-06T02:04:55.229Z,2.20
2022-09-06T02:09:42.293Z,2.40
2022-09-06T02:14:30.538Z,2.45
2022-09-06T02:19:17.746Z,2.65
2022-09-06T02:24:04.837Z,3.17
2022-09-06T02:28:50.205Z,3.50
2022-09-06T02:33:35.936Z,3.80
2022-09-06T02:38:19.908Z,4.30
2022-09-06T02:43:03.370Z,4.93
2022-09-06T02:47:48.208Z,4.53
2022-09-06T02:52:31.662Z,4.50
2022-09-06T02:57:15.200Z,4.93
2022-09-06T03:01:58.733Z,4.57
2022-09-06T03:06:43.601Z,3.90
2022-09-06T03:11:27.045Z,4.37
2022-09-06T03:16:10.594Z,4.87
2022-09-06T03:20:55.718Z,5.17
2022-09-06T03:25:40.563Z,7.07
2022-09-06T03:30:24.102Z,5.50
2022-09-06T03:35:08.038Z,5.47
2022-09-06T03:39:51.520Z,5.40
2022-09-06T03:44:36.353Z,6.40
2022-09-06T03:49:19.872Z,5.67
2022-09-06T03:54:03.309Z,6.07
2022-09-06T03:58:46.827Z,5.43
2022-09-06T04:03:31.745Z,5.53
2022-09-06T04:08:15.190Z,6.10
2022-09-06T04:12:58.620Z,6.00
2022-09-06T04:17:46.046Z,5.80
2022-09-06T04:22:30.894Z,4.17
2022-09-06T04:27:14.319Z,2.93
2022-09-06T04:31:57.785Z,3.87
2022-09-06T04:36:42.852Z,3.50
2022-09-06T04:41:30.262Z,3.90
2022-09-06T04:46:25.165Z,4.90
2022-09-06T04:51:08.646Z,4.40
2022-09-06T04:55:52.122Z,4.17
2022-09-06T05:00:38.918Z,4.80
2022-09-06T05:05:23.078Z,4.90
2022-09-06T05:10:07.247Z,4.87
2022-09-06T05:14:50.754Z,5.33
2022-09-06T05:19:35.559Z,4.40
2022-09-06T05:24:19.019Z,4.77
2022-09-06T05:29:02.653Z,4.97
2022-09-06T05:33:46.105Z,4.37
2022-09-06T05:38:31.228Z,4.53
2022-09-06T05:43:14.907Z,5.20
2022-09-06T05:47:58.438Z,5.60
2022-09-06T05:52:41.964Z,6.03
2022-09-06T05:57:26.989Z,6.63
2022-09-06T06:02:10.467Z,7.03
2022-09-06T06:06:54.020Z,6.80
2022-09-06T06:11:37.469Z,6.20
2022-09-06T06:16:23.799Z,6.57
2022-09-06T06:21:12.243Z,6.13
2022-09-06T06:25:56.055Z,7.03
2022-09-06T06:30:39.499Z,7.60
2022-09-06T06:35:24.439Z,6.47
2022-09-06T06:40:09.151Z,6.07
2022-09-06T06:44:55.520Z,5.80
2022-09-06T06:49:38.959Z,5.70
2022-09-06T06:54:23.786Z,5.60
2022-09-06T06:59:08.579Z,4.90
2022-09-06T07:03:52.363Z,4.20
2022-09-06T07:08:37.284Z,4.27
2022-09-06T07:13:22.155Z,4.00
2022-09-06T07:18:06.091Z,3.67
2022-09-06T07:28:07.139Z,4.70
2022-09-06T07:32:51.981Z,4.50
2022-09-06T07:37:35.627Z,3.93
2022-09-06T07:42:19.074Z,4.20
2022-09-06T07:57:14.620Z,5.20
2022-09-06T08:01:58.188Z,3.95
2022-09-06T08:11:51.217Z,4.22
2022-09-06T08:16:36.450Z,3.80
2022-09-06T08:21:20.245Z,3.72
2022-09-06T08:26:03.684Z,3.38
2022-09-06T08:30:48.527Z,2.30
2022-09-06T08:35:31.918Z,2.67
2022-09-06T08:40:21.655Z,3.22
2022-09-06T08:45:09.423Z,3.00
2022-09-06T08:49:57.699Z,3.20
2022-09-06T08:54:46.290Z,3.70
2022-09-06T08:59:32.986Z,3.03
2022-09-06T09:04:21.745Z,3.60
2022-09-06T09:09:09.109Z,3.00
2022-09-06T09:13:56.331Z,2.60
2022-09-06T09:18:41.608Z,2.60
2022-09-06T09:23:25.020Z,2.53
2022-09-06T09:28:15.884Z,3.08
2022-09-06T09:32:59.655Z,3.10
2022-09-06T09:37:54.192Z,2.97
2022-09-06T09:42:43.455Z,2.70
2022-09-06T09:47:30.494Z,2.97
2022-09-06T09:52:16.242Z,2.65
2022-09-06T09:57:00.271Z,2.42
2022-09-06T10:01:43.762Z,2.65
2022-09-06T10:11:50.408Z,2.58
2022-09-06T10:16:44.968Z,2.33
2022-09-06T10:21:29.927Z,2.38
2022-09-06T10:26:25.005Z,2.65
2022-09-06T10:31:22.897Z,2.47
2022-09-06T10:36:07.139Z,2.20
2022-09-06T10:41:01.963Z,2.00
2022-09-06T10:45:48.348Z,2.03
2022-09-06T10:50:44.038Z,2.03
2022-09-06T10:55:27.559Z,2.10
2022-09-06T11:00:14.817Z,2.15
2022-09-06T11:10:11.750Z,2.10
2022-09-06T11:14:55.752Z,2.45
2022-09-06T11:19:47.468Z,1.95
2022-09-06T11:24:44.398Z,1.80
2022-09-06T11:29:30.626Z,1.98
2022-09-06T11:34:22.134Z,1.45
2022-09-06T11:39:10.175Z,1.73
2022-09-06T11:43:54.619Z,1.58
2022-09-06T11:48:54.512Z,2.13
2022-09-06T11:54:08.812Z,1.60
2022-09-06T11:58:57.349Z,1.70
2022-09-06T12:04:07.761Z,1.90
2022-09-06T12:08:52.876Z,2.15
2022-09-06T12:13:50.519Z,2.13
2022-09-06T12:18:56.114Z,1.90
2022-09-06T12:23:43.542Z,2.20
2022-09-06T12:28:51.558Z,2.72
2022-09-06T12:33:39.017Z,2.17
2022-09-06T12:38:26.019Z,2.38
2022-09-06T12:43:13.096Z,2.50
2022-09-06T12:48:09.918Z,2.78
2022-09-06T12:52:54.685Z,2.38
2022-09-06T12:57:38.218Z,2.70
2022-09-06T13:02:27.934Z,2.55
2022-09-06T13:07:16.448Z,2.55
2022-09-06T13:12:06.683Z,2.90
2022-09-06T13:16:52.006Z,3.00
2022-09-06T13:21:36.380Z,2.30
2022-09-06T13:26:37.564Z,2.55
2022-09-06T13:31:23.054Z,2.58
2022-09-06T13:36:16.827Z,3.03
2022-09-06T13:41:16.935Z,2.55
2022-09-06T13:46:09.300Z,2.92
2022-09-06T13:50:52.985Z,2.70
2022-09-06T13:55:36.586Z,3.05
2022-09-06T14:00:20.099Z,2.97
2022-09-06T14:05:05.357Z,3.17
2022-09-06T14:09:50.350Z,3.40
2022-09-06T14:14:34.022Z,3.20
2022-09-06T14:19:17.799Z,3.25
2022-09-06T14:24:04.563Z,2.95
2022-09-06T14:28:48.781Z,4.00
2022-09-06T14:33:32.973Z,2.83
2022-09-06T14:38:16.938Z,5.10
2022-09-06T14:43:01.928Z,2.97
2022-09-06T14:47:45.591Z,3.33
2022-09-06T14:52:29.391Z,3.60
2022-09-06T14:57:12.968Z,3.03
2022-09-06T15:01:58.021Z,3.30
2022-09-06T15:06:47.234Z,3.10
2022-09-06T15:11:34.725Z,3.75
2022-09-06T15:16:18.591Z,3.50
2022-09-06T15:21:12.093Z,3.08
2022-09-06T15:25:55.682Z,9.23
2022-09-06T15:30:40.417Z,4.30
2022-09-06T15:35:24.031Z,3.88
2022-09-06T15:40:10.226Z,3.60
2022-09-06T15:44:53.828Z,3.17
2022-09-06T15:49:38.598Z,2.70
2022-09-06T15:54:44.423Z,2.92
2022-09-06T15:59:29.330Z,2.80
2022-09-06T16:04:12.876Z,2.28
2022-09-06T16:08:59.923Z,2.60
2022-09-06T16:13:44.346Z,2.20
2022-09-06T16:18:29.415Z,3.15
2022-09-06T16:23:13.298Z,2.30
2022-09-06T16:27:57.087Z,1.98
2022-09-06T16:32:40.661Z,2.00
2022-09-06T16:37:25.656Z,2.72
2022-09-06T16:42:09.295Z,2.78
2022-09-06T16:46:53.909Z,3.47
2022-09-06T16:51:37.562Z,3.45
2022-09-06T16:56:25.635Z,3.45
2022-09-06T17:01:09.988Z,3.60
2022-09-06T17:05:54.061Z,3.70
2022-09-06T17:10:40.148Z,3.88
2022-09-06T17:15:25.428Z,3.78
2022-09-06T17:20:10.065Z,3.47
2022-09-06T17:24:54.077Z,3.70
2022-09-06T17:29:38.116Z,3.70
2022-09-06T17:34:23.216Z,4.97
2022-09-06T17:39:09.128Z,4.38
2022-09-06T17:43:54.187Z,4.82
2022-09-06T17:48:37.951Z,5.20
2022-09-06T17:53:23.120Z,5.85
2022-09-06T17:58:06.862Z,5.57
2022-09-06T18:02:51.141Z,5.65
2022-09-06T18:07:35.781Z,6.30
2022-09-06T18:12:23.077Z,4.95
2022-09-06T18:17:08.913Z,5.93
2022-09-06T18:21:52.789Z,5.75
2022-09-06T18:26:37.324Z,6.43
2022-09-06T18:31:27.717Z,5.97
2022-09-06T18:36:13.313Z,4.57
2022-09-06T18:40:58.816Z,5.43
2022-09-06T18:45:43.526Z,6.32
2022-09-06T18:50:28.902Z,6.50
2022-09-06T18:55:12.891Z,7.30
2022-09-06T18:59:56.758Z,6.00
2022-09-06T19:04:40.696Z,5.47
2022-09-06T19:09:26.101Z,4.65
2022-09-06T19:14:10.105Z,3.92
2022-09-06T19:18:56.119Z,3.33
2022-09-06T19:23:41.488Z,4.20
2022-09-06T19:28:27.370Z,4.65
2022-09-06T19:33:11.444Z,3.65
2022-09-06T19:37:55.386Z,3.47
2022-09-06T19:42:39.431Z,2.72
2022-09-06T19:47:24.866Z,2.78
2022-09-06T19:52:10.242Z,3.43
2022-09-06T19:56:54.084Z,2.40
2022-09-06T20:01:39.476Z,2.47
2022-09-06T20:06:27.504Z,2.77
2022-09-06T20:11:13.127Z,2.53
2022-09-06T20:15:57.339Z,2.90
2022-09-06T20:20:41.327Z,2.60
2022-09-06T20:25:26.777Z,2.65
2022-09-06T20:30:11.121Z,2.23
2022-09-06T20:34:54.604Z,2.37
2022-09-06T20:39:38.771Z,2.50
2022-09-06T20:44:23.911Z,2.60
2022-09-06T20:49:09.083Z,2.10
2022-09-06T20:53:55.613Z,3.10
2022-09-06T20:58:39.310Z,2.70
2022-09-06T21:03:25.388Z,2.27
2022-09-06T21:08:09.008Z,2.33
2022-09-06T21:12:53.179Z,2.60
2022-09-06T21:17:39.165Z,2.20
2022-09-06T21:22:24.887Z,2.27
2022-09-06T21:27:12.365Z,2.33
2022-09-06T21:31:56.410Z,2.30
2022-09-06T21:36:40.668Z,2.37
2022-09-06T21:41:25.869Z,2.10
2022-09-06T21:46:11.414Z,2.00
2022-09-06T21:50:54.973Z,2.50
2022-09-06T21:55:38.496Z,2.10
2022-09-06T22:00:23.383Z,2.10
2022-09-06T22:05:07.389Z,1.97
2022-09-06T22:09:50.941Z,2.30
2022-09-06T22:14:34.436Z,2.23
2022-09-06T22:19:19.674Z,2.13
2022-09-06T22:24:05.114Z,2.40
2022-09-06T22:28:48.935Z,2.27
2022-09-06T22:33:32.621Z,1.90
2022-09-06T22:38:17.520Z,2.03
2022-09-06T22:43:01.126Z,2.47
2022-09-06T22:47:44.596Z,2.20
2022-09-06T22:52:28.307Z,2.73
2022-09-06T22:57:13.417Z,3.53
2022-09-06T23:01:56.879Z,3.27
2022-09-06T23:06:41.059Z,3.07
2022-09-06T23:11:24.511Z,3.17
2022-09-06T23:16:11.451Z,2.90
2022-09-06T23:21:07.167Z,2.87
2022-09-06T23:25:51.863Z,3.03
2022-09-06T23:30:39.347Z,2.60
2022-09-06T23:35:24.320Z,2.83
2022-09-06T23:40:09.206Z,2.47
2022-09-06T23:44:54.722Z,2.73
2022-09-06T23:49:38.212Z,2.30
2022-09-06T23:54:23.165Z,2.70
2022-09-06T23:59:06.668Z,3.07
